Time;durP1;ratioP1;P1;durP2;ratioP2;P2;SDS_P1;SDS_P2;PMS_P1;PMS_P2;Temp;Humidity;BMP_temperature;BMP_pressure;BME280_temperature;BME280_humidity;BME280_pressure;Samples;Min_cycle;Max_cycle;Signal;HPM_P1;HPM_P2
2022/10/10 00:00:37;;;;;;;9.65;5.20;;;;;;;-143.48;62.58;79043.47;5033829;28;20025;-71
2022/10/10 00:03:03;;;;;;;9.07;4.82;;;;;;;-143.48;62.97;79051.41;5016059;28;20467;-72
2022/10/10 00:05:28;;;;;;;9.13;4.70;;;;;;;-143.48;63.10;79053.41;5016088;28;20025;-72
2022/10/10 00:07:53;;;;;;;11.52;4.97;;;;;;;-143.48;63.08;79057.38;5033802;28;20410;-71
2022/10/10 00:10:19;;;;;;;8.32;5.00;;;;;;;-143.48;63.37;79057.38;5015975;28;20124;-71
2022/10/10 00:12:44;;;;;;;12.52;5.43;;;;;;;-143.48;63.51;79059.34;5033606;28;20025;-71
2022/10/10 00:15:11;;;;;;;11.07;5.10;;;;;;;-143.48;63.88;79067.28;5033756;28;20025;-72
2022/10/10 00:17:39;;;;;;;10.88;4.80;;;;;;;-143.48;63.79;79061.34;5033493;28;20527;-72
2022/10/10 00:20:05;;;;;;;8.80;5.03;;;;;;;-143.48;63.75;79069.28;5015661;28;20024;-72
2022/10/10 00:22:30;;;;;;;11.73;5.40;;;;;;;-143.48;63.90;79069.28;5033486;28;20113;-72
2022/10/10 00:24:56;;;;;;;11.15;5.30;;;;;;;-143.48;63.93;79065.31;5033489;28;20048;-71
2022/10/10 00:27:21;;;;;;;7.57;5.22;;;;;;;-143.48;64.29;79073.25;5032153;28;20025;-71
2022/10/10 00:29:46;;;;;;;10.48;5.00;;;;;;;-143.48;64.36;79071.25;5015601;28;20435;-72
2022/10/10 00:32:11;;;;;;;10.75;5.10;;;;;;;-143.48;64.00;79067.28;5033431;28;20021;-71
2022/10/10 00:34:37;;;;;;;8.05;5.03;;;;;;;-143.48;64.36;79067.28;5015599;28;20048;-72
2022/10/10 00:37:02;;;;;;;11.23;5.53;;;;;;;-143.48;64.36;79067.28;5033326;28;20026;-71
2022/10/10 00:39:27;;;;;;;11.40;5.15;;;;;;;-143.48;64.32;79067.28;5033189;28;20060;-71
2022/10/10 00:41:52;;;;;;;8.70;5.50;;;;;;;-143.48;64.57;79079.19;5033175;28;20129;-72
2022/10/10 00:44:18;;;;;;;8.65;5.32;;;;;;;-143.48;64.63;79073.25;5033103;28;20037;-71
2022/10/10 00:46:43;;;;;;;9.95;5.35;;;;;;;-143.48;64.49;79069.28;5015625;28;20024;-71
2022/10/10 00:49:14;;;;;;;10.75;5.47;;;;;;;-143.48;64.59;79067.28;5033179;28;20104;-72
2022/10/10 00:51:41;;;;;;;7.97;5.00;;;;;;;-143.48;64.81;79079.19;5033179;28;20027;-72
2022/10/10 00:54:10;;;;;;;10.07;5.70;;;;;;;-143.48;64.86;79065.31;5033230;28;20044;-72
2022/10/10 00:56:41;;;;;;;10.65;5.38;;;;;;;-143.48;64.65;79063.31;5037072;28;20021;-72
2022/10/10 00:59:09;;;;;;;12.80;5.50;;;;;;;-143.48;64.64;79053.41;5037449;28;20419;-72
2022/10/10 01:01:35;;;;;;;12.02;5.82;;;;;;;-143.48;65.37;79059.34;5037594;28;20104;-72
2022/10/10 01:04:01;;;;;;;14.18;5.85;;;;;;;-143.48;64.74;79061.34;5037218;28;20456;-72
2022/10/10 01:06:27;;;;;;;7.85;5.32;;;;;;;-143.48;65.02;79053.41;5037392;28;20025;-72
2022/10/10 01:08:55;;;;;;;9.00;5.20;;;;;;;-143.48;65.11;79055.38;5037113;28;20068;-73
2022/10/10 01:11:38;;;;;;;8.93;5.55;;;;;;;-143.48;65.00;79063.31;5037026;28;20396;-72
2022/10/10 01:14:26;;;;;;;8.90;5.03;;;;;;;-143.48;65.00;79067.28;5037031;28;20029;-72
2022/10/10 01:17:23;;;;;;;9.80;5.30;;;;;;;-143.48;64.95;79059.34;5036966;28;20476;-72
2022/10/10 01:20:31;;;;;;;15.15;5.43;;;;;;;-143.48;65.18;79059.34;5019259;28;20029;-72
2022/10/10 01:23:44;;;;;;;11.88;5.28;;;;;;;-143.48;65.04;79055.38;5021871;28;20025;-72
2022/10/10 01:26:35;;;;;;;10.07;5.50;;;;;;;-143.48;65.09;79057.38;5031046;28;20112;-72
2022/10/10 01:29:31;;;;;;;9.00;5.53;;;;;;;-143.48;65.48;79059.34;5029536;28;20766;-71
2022/10/10 01:32:14;;;;;;;14.23;5.55;;;;;;;-143.48;65.39;79059.34;5036217;28;20088;-71
2022/10/10 01:34:44;;;;;;;9.88;5.13;;;;;;;-143.48;65.48;79051.41;5019134;28;20022;-71
2022/10/10 01:37:18;;;;;;;8.98;5.55;;;;;;;-143.48;65.51;79053.41;5018843;28;20120;-71
2022/10/10 01:40:11;;;;;;;10.80;5.13;;;;;;;-143.48;65.81;79055.38;5036550;28;20031;-71
2022/10/10 01:42:58;;;;;;;17.73;5.60;;;;;;;-143.48;66.06;79051.41;5036119;28;20124;-71
2022/10/10 01:45:25;;;;;;;10.68;5.38;;;;;;;-143.48;65.93;79055.38;5018651;28;20384;-71
2022/10/10 01:47:52;;;;;;;13.35;5.47;;;;;;;-143.48;65.89;79053.41;5036318;28;20035;-71
2022/10/10 01:50:20;;;;;;;8.02;5.40;;;;;;;-143.48;65.97;79059.34;5036542;28;20033;-71
2022/10/10 01:52:51;;;;;;;10.25;5.50;;;;;;;-143.48;66.13;79051.41;5017505;28;20488;-71
2022/10/10 01:55:45;;;;;;;7.80;5.38;;;;;;;-143.48;66.18;79061.34;5036297;28;20499;-71
2022/10/10 01:58:48;;;;;;;9.20;5.50;;;;;;;-143.48;66.54;79065.31;5018577;28;20032;-71
2022/10/10 02:01:30;;;;;;;10.27;5.57;;;;;;;-143.48;66.43;79055.38;5036309;28;20036;-71
2022/10/10 02:04:08;;;;;;;19.70;5.68;;;;;;;-143.48;66.39;79059.34;5036134;28;20099;-71
2022/10/10 02:06:47;;;;;;;10.13;5.53;;;;;;;-143.48;66.59;79055.38;5018344;28;20025;-71
2022/10/10 02:09:19;;;;;;;10.13;5.53;;;;;;;-143.48;66.50;79059.34;5035496;28;20036;-71
2022/10/10 02:11:46;;;;;;;9.25;5.28;;;;;;;-143.48;66.58;79047.44;5036332;28;20033;-71
2022/10/10 02:14:22;;;;;;;8.52;5.15;;;;;;;-143.48;66.54;79051.41;5036638;28;20117;-72
2022/10/10 02:16:51;;;;;;;9.30;5.07;;;;;;;-143.48;66.48;79031.59;5036437;28;20075;-71
2022/10/10 02:19:19;;;;;;;11.63;5.65;;;;;;;-143.48;66.71;79045.47;5018576;28;20029;-71
2022/10/10 02:21:48;;;;;;;8.45;5.13;;;;;;;-143.48;66.72;79043.47;5036538;28;20025;-71
2022/10/10 02:24:14;;;;;;;10.15;5.80;;;;;;;-143.48;66.30;79023.66;5019610;28;20476;-72
2022/10/10 02:26:43;;;;;;;10.60;5.28;;;;;;;-143.48;66.59;79027.63;5036961;28;20045;-71
2022/10/10 02:29:18;;;;;;;9.10;5.93;;;;;;;-143.48;66.18;79019.69;5019140;28;20036;-71
2022/10/10 02:32:00;;;;;;;9.30;5.53;;;;;;;-143.48;66.57;79023.66;5019568;28;20025;-71
2022/10/10 02:34:32;;;;;;;10.43;5.53;;;;;;;-143.48;67.17;79027.63;5044702;28;20034;-71
2022/10/10 02:37:01;;;;;;;9.95;5.38;;;;;;;-143.48;66.42;79023.66;5046051;28;20030;-71
2022/10/10 02:39:31;;;;;;;9.48;5.60;;;;;;;-143.48;66.59;79019.69;5046635;28;20060;-72
2022/10/10 02:41:56;;;;;;;8.40;4.90;;;;;;;-143.48;66.65;79003.81;5046774;28;20495;-71
2022/10/10 02:44:23;;;;;;;10.52;5.97;;;;;;;-143.48;66.77;79017.69;5045507;28;20148;-71
2022/10/10 02:46:48;;;;;;;10.40;5.93;;;;;;;-143.48;66.70;79011.75;5046670;28;20025;-71
2022/10/10 02:49:13;;;;;;;10.63;5.22;;;;;;;-143.48;67.22;79023.66;5046512;28;20027;-71
2022/10/10 02:51:39;;;;;;;12.27;5.38;;;;;;;-143.48;67.08;79019.69;5045997;28;20041;-71
2022/10/10 02:54:05;;;;;;;12.23;5.55;;;;;;;-143.48;67.21;79019.69;5045793;28;20113;-71
2022/10/10 02:56:30;;;;;;;10.77;5.13;;;;;;;-143.48;66.94;79011.75;5045145;28;20022;-70
2022/10/10 02:58:56;;;;;;;9.85;5.60;;;;;;;-143.48;67.26;79013.72;5046619;28;20029;-71
2022/10/10 03:01:22;;;;;;;11.57;5.72;;;;;;;-143.48;67.41;79015.72;5053934;28;20021;-71
2022/10/10 03:03:47;;;;;;;10.35;5.35;;;;;;;-143.48;67.67;79023.66;5038003;28;20022;-71
2022/10/10 03:06:12;;;;;;;10.07;5.63;;;;;;;-143.48;67.89;79033.56;5055271;28;20040;-72
2022/10/10 03:08:38;;;;;;;11.52;5.70;;;;;;;-143.48;68.13;79023.66;5037913;28;20021;-73
2022/10/10 03:11:04;;;;;;;10.90;6.50;;;;;;;-143.48;67.63;79019.69;5038230;28;20104;-71
2022/10/10 03:13:29;;;;;;;12.32;5.30;;;;;;;-143.48;67.71;79019.69;5054928;28;20020;-72
2022/10/10 03:15:54;;;;;;;8.82;5.90;;;;;;;-143.48;68.01;79025.63;5054565;28;20005;-72
2022/10/10 03:18:20;;;;;;;13.52;5.75;;;;;;;-143.48;68.11;79027.63;5054211;28;20026;-73
2022/10/10 03:20:49;;;;;;;17.60;6.20;;;;;;;-143.48;68.29;79037.53;5046034;28;20490;-72
2022/10/10 03:23:15;;;;;;;11.63;5.93;;;;;;;-143.48;68.32;79035.56;5038866;28;20079;-73
2022/10/10 03:25:43;;;;;;;10.52;5.70;;;;;;;-143.48;68.53;79053.41;5038117;28;20021;-72
2022/10/10 03:28:10;;;;;;;12.82;5.78;;;;;;;-143.48;69.12;79061.34;5037798;28;20484;-71
2022/10/10 03:30:35;;;;;;;13.77;6.10;;;;;;;-143.48;69.58;79069.28;5037855;28;20053;-71
2022/10/10 03:33:01;;;;;;;17.38;8.43;;;;;;;-143.48;69.43;79053.41;5037226;28;20465;-72
2022/10/10 03:35:26;;;;;;;9.00;6.13;;;;;;;-143.48;69.60;79069.28;5018464;28;20053;-71
2022/10/10 03:37:52;;;;;;;12.18;5.70;;;;;;;-143.48;69.80;79065.31;5036586;28;20018;-71
2022/10/10 03:40:17;;;;;;;12.02;6.05;;;;;;;-143.48;69.96;79059.34;5018580;28;20021;-72
2022/10/10 03:42:42;;;;;;;11.75;6.25;;;;;;;-143.48;69.86;79071.25;5035461;28;20050;-71
2022/10/10 03:45:08;;;;;;;11.55;5.80;;;;;;;-143.48;70.10;79071.25;5035080;28;20028;-71
2022/10/10 03:47:33;;;;;;;12.75;6.15;;;;;;;-143.48;70.60;79089.09;5034765;28;20025;-71
2022/10/10 03:49:58;;;;;;;10.07;6.07;;;;;;;-143.48;70.72;79079.19;5034545;28;20021;-71
2022/10/10 03:52:24;;;;;;;10.98;5.82;;;;;;;-143.48;70.13;79079.19;5034341;28;20021;-73
2022/10/10 03:54:49;;;;;;;12.18;6.93;;;;;;;-143.48;70.74;79085.13;5017160;28;20025;-72
2022/10/10 03:57:14;;;;;;;13.02;6.35;;;;;;;-143.48;70.61;79085.13;5016504;28;20029;-72
2022/10/10 03:59:40;;;;;;;13.10;6.00;;;;;;;-143.48;71.46;79099.03;5016598;28;20112;-73
2022/10/10 04:02:05;;;;;;;10.27;6.38;;;;;;;-143.48;71.60;79099.03;5016409;28;20025;-72
2022/10/10 04:04:30;;;;;;;11.02;6.05;;;;;;;-143.48;71.39;79097.03;5033965;28;20025;-72
2022/10/10 04:06:55;;;;;;;12.82;6.05;;;;;;;-143.48;71.84;79103.00;5034838;28;20107;-72
2022/10/10 04:09:21;;;;;;;8.95;5.70;;;;;;;-143.48;71.68;79099.03;5016772;28;20086;-72
2022/10/10 04:11:47;;;;;;;11.00;6.20;;;;;;;-143.48;71.82;79095.06;5034400;28;20104;-72
2022/10/10 04:14:12;;;;;;;15.95;6.40;;;;;;;-143.48;71.77;79087.13;5034321;28;20473;-72
2022/10/10 04:16:37;;;;;;;13.18;6.35;;;;;;;-143.48;72.19;79099.03;5015687;28;20025;-72
2022/10/10 04:19:03;;;;;;;12.05;6.10;;;;;;;-143.48;72.24;79095.06;5015886;28;20040;-72
2022/10/10 04:21:28;;;;;;;9.18;6.05;;;;;;;-143.48;72.10;79103.00;5015717;28;20025;-72
2022/10/10 04:23:53;;;;;;;14.35;6.50;;;;;;;-143.48;72.16;79095.06;5015852;28;20108;-72
2022/10/10 04:26:19;;;;;;;12.30;6.40;;;;;;;-143.48;72.75;79101.00;5016000;28;20384;-72
2022/10/10 04:28:44;;;;;;;14.27;6.35;;;;;;;-143.48;72.13;79091.09;5032882;28;20477;-72
2022/10/10 04:31:10;;;;;;;14.32;6.93;;;;;;;-143.48;71.88;79091.09;5033151;28;20037;-72
2022/10/10 04:33:35;;;;;;;10.60;6.22;;;;;;;-143.48;72.28;79095.06;5015729;28;20036;-73
2022/10/10 04:36:01;;;;;;;13.77;6.03;;;;;;;-143.48;72.70;79101.00;5015534;28;20025;-72
2022/10/10 04:38:27;;;;;;;12.50;6.72;;;;;;;-143.48;73.27;79108.94;5033246;28;20025;-72
2022/10/10 04:40:53;;;;;;;12.38;6.63;;;;;;;-143.48;73.26;79116.88;5015543;28;20116;-72
2022/10/10 04:43:18;;;;;;;12.43;6.40;;;;;;;-143.48;73.12;79116.88;5031657;28;20623;-72
2022/10/10 04:45:44;;;;;;;10.90;6.47;;;;;;;-143.48;72.91;79108.94;5015281;28;20029;-72
2022/10/10 04:48:09;;;;;;;11.05;6.55;;;;;;;-143.48;73.49;79118.84;5033146;28;20021;-72
2022/10/10 04:50:34;;;;;;;11.63;6.20;;;;;;;-143.48;73.61;79104.97;5033104;28;20492;-72
2022/10/10 04:53:00;;;;;;;12.38;6.40;;;;;;;-143.48;73.75;79104.97;5015333;28;20036;-72
2022/10/10 04:55:25;;;;;;;10.88;6.53;;;;;;;-143.48;74.27;79110.94;5033099;28;20025;-72
2022/10/10 04:57:50;;;;;;;11.45;6.15;;;;;;;-143.48;73.91;79104.97;5032911;28;20046;-72
2022/10/10 05:00:16;;;;;;;14.80;6.60;;;;;;;-143.48;73.85;79110.94;5015594;28;20033;-73
2022/10/10 05:02:41;;;;;;;10.98;6.18;;;;;;;-143.48;74.14;79114.88;5033083;28;20037;-73
2022/10/10 05:05:07;;;;;;;12.27;6.63;;;;;;;-143.48;74.04;79114.88;5032941;28;20056;-73
2022/10/10 05:07:32;;;;;;;14.20;6.18;;;;;;;-143.48;74.30;79110.94;5015352;28;20017;-73
2022/10/10 05:09:57;;;;;;;13.52;6.70;;;;;;;-143.48;74.22;79114.88;5015603;28;20408;-70
2022/10/10 05:12:23;;;;;;;14.43;6.72;;;;;;;-143.48;74.83;79118.84;5033242;28;20026;-72
2022/10/10 05:14:48;;;;;;;12.43;7.20;;;;;;;-143.48;74.56;79112.91;5015293;28;20053;-72
2022/10/10 05:17:14;;;;;;;11.50;6.35;;;;;;;-143.48;74.56;79122.81;5032953;28;20022;-71
2022/10/10 05:19:39;;;;;;;14.90;6.85;;;;;;;-143.48;74.46;79116.88;5015517;28;20049;-72
2022/10/10 05:22:04;;;;;;;12.68;6.80;;;;;;;-143.48;75.25;79114.88;5032884;28;20029;-72
2022/10/10 05:24:30;;;;;;;13.80;6.65;;;;;;;-143.48;75.30;79118.84;5016730;28;20021;-72
2022/10/10 05:26:55;;;;;;;11.35;6.50;;;;;;;-143.48;75.31;79118.84;5015313;28;20025;-71
2022/10/10 05:29:20;;;;;;;11.27;6.68;;;;;;;-143.48;75.60;79112.91;5015488;28;20162;-72
2022/10/10 05:31:46;;;;;;;10.85;6.35;;;;;;;-143.48;75.46;79120.84;5032869;28;20036;-71
2022/10/10 05:34:12;;;;;;;12.70;5.85;;;;;;;-143.48;74.80;79110.94;5033527;28;20029;-71
2022/10/10 05:36:38;;;;;;;11.40;6.63;;;;;;;-143.48;75.36;79118.84;5014999;28;20116;-71
2022/10/10 05:39:03;;;;;;;18.48;6.40;;;;;;;-143.48;75.37;79120.84;5032669;28;20065;-73
2022/10/10 05:41:29;;;;;;;14.52;6.45;;;;;;;-143.48;75.72;79120.84;5043819;28;20052;-72
2022/10/10 05:43:54;;;;;;;14.77;6.53;;;;;;;-143.48;75.64;79126.78;5032894;28;20045;-74
2022/10/10 05:46:22;;;;;;;11.68;6.50;;;;;;;-143.48;75.48;79106.97;5048212;28;20037;-74
2022/10/10 05:48:47;;;;;;;16.55;6.75;;;;;;;-143.48;75.62;79112.91;5028635;28;20041;-73
2022/10/10 05:51:13;;;;;;;16.48;6.70;;;;;;;-143.48;75.49;79110.94;5038486;28;20052;-71
2022/10/10 05:53:38;;;;;;;13.80;6.43;;;;;;;-143.48;75.41;79112.91;5036223;28;20018;-73
2022/10/10 05:56:03;;;;;;;12.00;6.53;;;;;;;-143.48;75.22;79104.97;5018737;28;20021;-72
2022/10/10 05:58:29;;;;;;;14.35;6.75;;;;;;;-143.48;75.10;79097.03;5018529;28;20026;-73
2022/10/10 06:01:01;;;;;;;12.45;7.10;;;;;;;-143.48;74.54;79101.00;5018395;28;20028;-72
2022/10/10 06:03:27;;;;;;;13.73;6.32;;;;;;;-143.48;75.01;79103.00;5036190;28;20017;-71
2022/10/10 06:05:52;;;;;;;11.43;7.05;;;;;;;-143.48;75.65;79126.78;5036237;28;20563;-71
2022/10/10 06:08:17;;;;;;;13.45;6.97;;;;;;;-143.48;76.25;79120.84;5035871;28;20018;-71
2022/10/10 06:10:44;;;;;;;12.98;6.60;;;;;;;-143.48;75.62;79106.97;5035868;28;20056;-71
2022/10/10 06:13:12;;;;;;;14.18;6.35;;;;;;;-143.48;75.67;79110.94;5034370;28;20096;-71
2022/10/10 06:15:37;;;;;;;15.85;6.97;;;;;;;-143.48;75.79;79104.97;5035186;28;20027;-72
2022/10/10 06:18:03;;;;;;;11.70;6.57;;;;;;;-143.48;75.85;79103.00;5035207;28;20033;-72
2022/10/10 06:20:28;;;;;;;14.23;6.90;;;;;;;-143.48;75.41;79106.97;5035578;28;20490;-71
2022/10/10 06:22:54;;;;;;;15.10;6.90;;;;;;;-143.48;75.98;79104.97;5017633;28;20017;-72
2022/10/10 06:25:19;;;;;;;13.73;6.80;;;;;;;-143.48;76.04;79114.88;5017954;28;20468;-72
2022/10/10 06:27:44;;;;;;;16.65;7.20;;;;;;;-143.48;76.01;79108.94;5016891;28;20361;-71
2022/10/10 06:30:10;;;;;;;13.40;6.78;;;;;;;-143.48;75.93;79110.94;5017689;28;20018;-73
2022/10/10 06:32:35;;;;;;;14.55;6.93;;;;;;;-143.48;75.60;79089.09;5035382;28;20518;-72
2022/10/10 06:35:00;;;;;;;17.58;7.20;;;;;;;-143.48;75.57;79091.09;5017410;28;20033;-72
2022/10/10 06:37:26;;;;;;;20.52;7.28;;;;;;;-143.48;75.41;79083.16;5016469;28;20044;-72
2022/10/10 06:39:51;;;;;;;12.13;6.35;;;;;;;-143.48;74.81;79065.31;5017912;28;20349;-72
2022/10/10 06:42:17;;;;;;;11.82;6.57;;;;;;;-143.48;73.70;79035.56;5017554;28;20038;-71
2022/10/10 06:44:42;;;;;;;15.80;7.10;;;;;;;-143.48;73.48;79031.59;5035252;28;20053;-72
2022/10/10 06:47:10;;;;;;;11.43;6.60;;;;;;;-143.48;73.60;79007.78;5035357;28;20162;-72
2022/10/10 06:49:35;;;;;;;11.82;7.00;;;;;;;-143.48;72.66;79001.81;5035396;28;20025;-72
2022/10/10 06:52:01;;;;;;;13.75;6.60;;;;;;;-143.48;72.71;78985.97;5035659;28;20037;-72
2022/10/10 06:54:26;;;;;;;13.10;7.00;;;;;;;-143.48;72.17;78982.00;5016566;28;20476;-72
2022/10/10 06:56:51;;;;;;;11.43;6.20;;;;;;;-143.48;71.95;78964.16;5034652;28;20025;-71
2022/10/10 06:59:16;;;;;;;11.30;6.00;;;;;;;-143.48;71.94;78952.25;5017190;28;20033;-72
2022/10/10 07:01:42;;;;;;;11.05;6.03;;;;;;;-143.48;71.07;78920.50;5017135;28;20025;-72
2022/10/10 07:04:08;;;;;;;14.48;6.07;;;;;;;-143.48;70.28;78896.69;5034066;28;20091;-72
2022/10/10 07:06:35;;;;;;;14.27;6.55;;;;;;;-143.48;69.83;78890.75;5034899;28;20045;-71
2022/10/10 07:09:00;;;;;;;12.77;6.50;;;;;;;-143.48;69.46;78874.88;5035030;28;20041;-71
2022/10/10 07:11:25;;;;;;;9.85;6.20;;;;;;;-143.48;69.12;78853.06;5017162;28;20025;-71
2022/10/10 07:13:52;;;;;;;9.90;6.05;;;;;;;-143.48;68.43;78839.19;5034799;28;20087;-72
2022/10/10 07:16:17;;;;;;;12.35;5.75;;;;;;;-143.48;68.86;78859.03;5034439;28;20032;-71
2022/10/10 07:18:43;;;;;;;12.43;6.40;;;;;;;-143.48;67.97;78791.59;5016999;28;20471;-71
2022/10/10 07:21:09;;;;;;;18.50;6.43;;;;;;;-143.48;64.76;78718.19;5033207;28;20030;-71
2022/10/10 07:23:35;;;;;;;14.98;5.97;;;;;;;-143.48;64.72;78710.25;5033952;28;20032;-72
2022/10/10 07:26:04;;;;;;;16.95;6.15;;;;;;;-143.48;65.10;78734.06;5034074;28;20100;-72
2022/10/10 07:28:30;;;;;;;11.60;5.68;;;;;;;-143.48;64.20;78682.50;5016406;28;20025;-72
2022/10/10 07:30:59;;;;;;;11.48;5.80;;;;;;;-143.48;62.16;78630.94;5034254;28;20445;-72
2022/10/10 07:33:25;;;;;;;11.82;5.63;;;;;;;-143.48;63.09;78672.56;5019955;28;20026;-72
2022/10/10 07:35:53;;;;;;;12.57;5.32;;;;;;;-143.48;62.09;78607.13;5034387;28;20022;-73
2022/10/10 07:38:19;;;;;;;11.93;5.47;;;;;;;-143.48;62.29;78630.94;5016294;28;20124;-73
2022/10/10 07:40:44;;;;;;;11.20;5.30;;;;;;;-143.48;63.40;78660.69;5034674;28;20064;-72
2022/10/10 07:43:09;;;;;;;11.93;6.28;;;;;;;-143.48;61.26;78551.59;5033489;28;20061;-73
2022/10/10 07:45:35;;;;;;;11.63;5.75;;;;;;;-143.48;59.23;78464.34;5019418;28;20513;-72
2022/10/10 07:48:01;;;;;;;12.35;6.38;;;;;;;-143.48;58.37;78424.66;5034214;28;20110;-71
2022/10/10 07:50:26;;;;;;;15.90;6.05;;;;;;;-143.48;55.48;78335.41;5016254;28;20056;-72
2022/10/10 07:52:52;;;;;;;11.65;5.68;;;;;;;-143.48;54.93;78246.19;5016088;28;20028;-72
2022/10/10 07:55:17;;;;;;;9.60;5.00;;;;;;;-143.48;47.57;77913.03;5015895;28;20536;-72
2022/10/10 07:57:42;;;;;;;10.95;5.03;;;;;;;-143.48;47.46;77980.44;5031734;28;20052;-72
2022/10/10 08:00:09;;;;;;;9.88;4.95;;;;;;;-143.48;48.22;77992.34;5015190;28;20022;-72
2022/10/10 08:02:34;;;;;;;11.32;4.70;;;;;;;-143.48;45.45;77865.44;5033489;28;20477;-72
2022/10/10 08:04:59;;;;;;;13.85;4.28;;;;;;;-143.48;45.32;77867.41;5033422;28;20033;-72
2022/10/10 08:07:25;;;;;;;9.75;4.85;;;;;;;-143.48;49.37;78069.69;5015428;28;20040;-73
2022/10/10 08:09:50;;;;;;;9.05;4.60;;;;;;;-143.48;45.32;77819.81;5032545;28;20068;-72
2022/10/10 08:12:16;;;;;;;11.15;4.47;;;;;;;-143.48;43.88;77796.03;5033525;28;20032;-72
2022/10/10 08:14:41;;;;;;;8.65;4.20;;;;;;;-143.48;46.51;77980.44;5033818;28;20079;-72
2022/10/10 08:17:06;;;;;;;10.35;4.47;;;;;;;-143.48;44.73;77825.78;5033638;28;20021;-72
2022/10/10 08:19:32;;;;;;;8.95;4.40;;;;;;;-143.48;45.59;77893.19;5033238;28;20035;-72
2022/10/10 08:21:57;;;;;;;12.35;4.32;;;;;;;-143.48;49.74;78137.09;5033018;28;20032;-71
2022/10/10 08:24:23;;;;;;;11.35;4.38;;;;;;;-143.48;48.42;78067.69;5033522;28;20021;-72
2022/10/10 08:26:49;;;;;;;12.23;4.72;;;;;;;-143.48;52.11;78236.25;5015876;28;20021;-72
2022/10/10 08:29:15;;;;;;;9.10;4.50;;;;;;;-143.48;53.67;78285.84;5015777;28;20115;-71
2022/10/10 08:31:40;;;;;;;13.93;5.30;;;;;;;-143.48;55.21;78357.22;5015595;28;20503;-71
2022/10/10 08:34:06;;;;;;;8.32;4.60;;;;;;;-143.48;56.07;78394.91;5015659;28;20041;-71
2022/10/10 08:36:31;;;;;;;9.95;5.28;;;;;;;-143.48;57.24;78418.72;5014743;28;20025;-71
2022/10/10 08:38:59;;;;;;;13.18;4.93;;;;;;;-143.48;57.72;78410.78;5033274;28;20021;-70
2022/10/10 08:41:55;;;;;;;13.02;5.78;;;;;;;-143.48;58.90;78464.34;5015612;28;20060;-71
2022/10/10 08:44:42;;;;;;;10.75;5.13;;;;;;;-143.48;59.55;78486.16;5003319;28;20048;-71
2022/10/10 08:47:44;;;;;;;15.32;5.60;;;;;;;-143.48;59.75;78464.34;5033179;28;20022;-71
2022/10/10 08:50:18;;;;;;;15.60;5.72;;;;;;;-143.48;60.64;78519.88;5015886;28;20017;-71
2022/10/10 08:52:52;;;;;;;12.00;5.72;;;;;;;-143.48;61.23;78511.94;5032276;28;20033;-71
2022/10/10 08:55:23;;;;;;;17.75;5.93;;;;;;;-143.48;60.29;78470.28;5015306;28;20032;-71
2022/10/10 08:57:59;;;;;;;14.20;5.80;;;;;;;-143.48;61.33;78507.97;5033020;28;20029;-71
2022/10/10 09:00:31;;;;;;;14.48;5.57;;;;;;;-143.48;61.09;78513.91;5015364;28;20111;-71
2022/10/10 09:02:59;;;;;;;15.40;5.78;;;;;;;-143.48;61.90;78523.81;5033090;28;20021;-72
2022/10/10 09:05:40;;;;;;;8.70;5.10;;;;;;;-143.48;62.09;78515.91;5014430;28;20040;-72
2022/10/10 09:08:21;;;;;;;12.70;5.80;;;;;;;-143.48;61.18;78490.13;5015190;28;20121;-71
2022/10/10 09:10:56;;;;;;;13.85;5.70;;;;;;;-143.48;61.53;78486.16;5032975;28;20041;-72
2022/10/10 09:13:56;;;;;;;10.65;5.38;;;;;;;-143.48;62.08;78505.97;5015416;28;20469;-72
2022/10/10 09:16:37;;;;;;;14.20;6.00;;;;;;;-143.48;62.60;78531.75;5015130;28;20041;-72
2022/10/10 09:19:12;;;;;;;14.48;6.07;;;;;;;-143.48;63.19;78537.72;5036906;28;20168;-72
2022/10/10 09:21:40;;;;;;;12.38;6.03;;;;;;;-143.48;63.32;78533.75;5036635;28;20084;-73
2022/10/10 09:24:15;;;;;;;12.55;5.97;;;;;;;-143.48;62.97;78527.78;5036237;28;20030;-72
2022/10/10 09:26:46;;;;;;;13.40;5.85;;;;;;;-143.48;63.34;78511.94;5036717;28;20569;-72
2022/10/10 09:29:30;;;;;;;14.00;6.13;;;;;;;-143.48;62.77;78496.06;5018972;28;20026;-72
2022/10/10 09:32:04;;;;;;;14.82;5.90;;;;;;;-143.48;62.53;78482.19;5018925;28;20061;-72
2022/10/10 09:34:41;;;;;;;11.57;5.75;;;;;;;-143.48;63.63;78523.81;5036611;28;20021;-72
2022/10/10 09:37:18;;;;;;;11.82;5.85;;;;;;;-143.48;63.62;78515.91;5018577;28;20025;-72
2022/10/10 09:39:49;;;;;;;17.27;6.13;;;;;;;-143.48;63.95;78517.88;5036344;28;20393;-72
2022/10/10 09:42:19;;;;;;;13.13;6.10;;;;;;;-143.48;64.10;78515.91;5036050;28;20025;-72
2022/10/10 09:44:45;;;;;;;13.77;6.13;;;;;;;-143.48;64.46;78541.69;5036266;28;20580;-71
2022/10/10 09:47:15;;;;;;;14.77;5.85;;;;;;;-143.48;64.15;78531.75;5036364;28;20049;-72
2022/10/10 09:49:42;;;;;;;17.70;6.15;;;;;;;-143.48;64.10;78527.78;5018471;28;20400;-71
2022/10/10 09:52:22;;;;;;;16.00;5.88;;;;;;;-143.48;63.77;78484.16;5035275;28;20033;-71
2022/10/10 09:54:48;;;;;;;9.90;5.50;;;;;;;-143.48;62.92;78478.22;5036069;28;20029;-71
2022/10/10 09:57:17;;;;;;;11.75;6.13;;;;;;;-143.48;62.38;78468.28;5036189;28;20029;-71
2022/10/10 09:59:44;;;;;;;13.88;6.22;;;;;;;-143.48;62.04;78436.56;5036072;28;20029;-71
2022/10/10 10:02:22;;;;;;;17.85;6.20;;;;;;;-143.48;62.60;78478.22;5018276;28;20033;-72
2022/10/10 10:04:48;;;;;;;16.10;6.20;;;;;;;-143.48;61.45;78434.59;5018212;28;20022;-72
2022/10/10 10:07:47;;;;;;;13.25;6.05;;;;;;;-143.48;60.75;78388.97;5018215;28;20045;-71
2022/10/10 10:10:20;;;;;;;13.35;5.72;;;;;;;-143.48;56.96;78234.28;5024383;28;20113;-72
2022/10/10 10:12:46;;;;;;;;;;;;;;;-143.48;53.01;78085.53;5018578;28;20029;-71
2022/10/10 10:15:18;;;;;;;11.40;5.68;;;;;;;-143.48;53.85;78139.09;5018025;28;19913;-72
2022/10/10 10:17:44;;;;;;;;;;;;;;;-143.48;57.73;78331.44;5036382;28;20048;-72
2022/10/10 10:20:37;;;;;;;12.90;5.55;;;;;;;-143.48;58.43;78307.66;5018127;28;19955;-72
2022/10/10 10:23:02;;;;;;;16.10;6.03;;;;;;;-143.48;56.43;78208.50;5033131;28;20048;-72
2022/10/10 10:25:33;;;;;;;10.95;5.13;;;;;;;-143.48;56.22;78200.56;5017948;28;20017;-72
2022/10/10 10:28:22;;;;;;;11.98;5.43;;;;;;;-143.48;57.38;78283.84;5016511;28;20090;-72
2022/10/10 10:30:48;;;;;;;18.58;6.47;;;;;;;-143.48;58.79;78321.53;5027498;28;20449;-72
2022/10/10 10:33:18;;;;;;;14.18;5.10;;;;;;;-143.48;59.39;78317.56;5017805;28;20068;-73
2022/10/10 10:35:56;;;;;;;15.63;5.60;;;;;;;-143.48;57.69;78260.06;5017563;28;20124;-70
2022/10/10 10:38:43;;;;;;;9.00;5.90;;;;;;;-143.48;58.91;78297.75;5035276;28;20032;-71
2022/10/10 10:41:37;;;;;;;16.00;5.40;;;;;;;-143.48;58.10;78273.94;5035301;28;20061;-72
2022/10/10 10:44:21;;;;;;;16.30;5.55;;;;;;;-143.48;58.88;78297.75;5029470;28;20107;-72
2022/10/10 10:46:56;;;;;;;12.40;5.45;;;;;;;-143.48;58.68;78260.06;5017563;28;20031;-72
2022/10/10 10:49:28;;;;;;;16.73;5.88;;;;;;;-143.48;58.79;78240.22;5035164;28;20029;-72
2022/10/10 10:52:20;;;;;;;16.58;5.88;;;;;;;-143.48;58.13;78230.31;5017213;28;20057;-72
2022/10/10 10:55:17;;;;;;;10.93;5.65;;;;;;;-143.48;57.95;78194.63;5016983;28;20060;-71
2022/10/10 10:57:53;;;;;;;10.05;5.57;;;;;;;-143.48;59.67;78238.25;5008975;28;20385;-71
2022/10/10 11:00:19;;;;;;;11.50;5.30;;;;;;;-143.48;59.41;78246.19;5034929;28;20040;-71
2022/10/10 11:03:15;;;;;;;12.85;5.70;;;;;;;-143.48;60.74;78295.75;5034875;28;20395;-72
2022/10/10 11:05:46;;;;;;;12.48;5.13;;;;;;;-143.48;62.96;78361.19;5034787;28;20384;-72
2022/10/10 11:08:42;;;;;;;10.57;5.30;;;;;;;-143.48;64.12;78379.06;5035146;28;20522;-71
2022/10/10 11:11:26;;;;;;;16.48;5.53;;;;;;;-143.48;65.26;78420.69;5029568;28;20175;-71
2022/10/10 11:14:39;;;;;;;13.30;5.82;;;;;;;-143.48;65.88;78424.66;5016993;28;20064;-71
2022/10/10 11:17:28;;;;;;;18.42;5.82;;;;;;;-143.48;65.32;78396.91;5016812;28;20029;-72
2022/10/10 11:20:16;;;;;;;13.20;6.13;;;;;;;-143.48;64.84;78377.06;5034636;28;20053;-72
2022/10/10 11:22:52;;;;;;;21.70;5.95;;;;;;;-143.48;64.80;78371.13;5034533;28;20044;-72
2022/10/10 11:25:24;;;;;;;13.45;5.47;;;;;;;-143.48;64.83;78355.25;5034144;28;20021;-72